Time;durP1;ratioP1;P1;durP2;ratioP2;P2;SDS_P1;SDS_P2;PMS_P1;PMS_P2;Temp;Humidity;BMP_temperature;BMP_pressure;BME280_temperature;BME280_humidity;BME280_pressure;Samples;Min_cycle;Max_cycle;Signal;HPM_P1;HPM_P2
2023/10/18 00:02:06;;;;;;;7.00;2.60;;;;;;;;;;5053443;28;20031;-82
2023/10/18 00:04:31;;;;;;;4.00;2.20;;;;;;;;;;5054016;28;20048;-82
2023/10/18 00:06:56;;;;;;;13.18;3.28;;;;;;;;;;5054120;28;20071;-82
2023/10/18 00:12:07;;;;;;;5.97;2.42;;;;;;;;;;5072026;28;20455;-83
2023/10/18 00:14:32;;;;;;;4.35;2.63;;;;;;;;;;5053195;28;20051;-82
2023/10/18 00:16:59;;;;;;;5.53;2.80;;;;;;;;;;5053663;28;20025;-82
2023/10/18 00:19:26;;;;;;;11.63;2.88;;;;;;;;;;5053288;28;20017;-82
2023/10/18 00:21:52;;;;;;;6.35;2.63;;;;;;;;;;5053639;28;20036;-82
2023/10/18 00:24:19;;;;;;;3.75;2.30;;;;;;;;;;5053998;28;20070;-82
2023/10/18 00:26:45;;;;;;;6.13;2.88;;;;;;;;;;5070813;28;20367;-81
2023/10/18 00:29:10;;;;;;;6.20;2.60;;;;;;;;;;5052313;28;20637;-82
2023/10/18 00:31:36;;;;;;;4.35;2.42;;;;;;;;;;5052743;28;20051;-82
2023/10/18 00:34:01;;;;;;;6.38;2.90;;;;;;;;;;5051999;28;20024;-81
2023/10/18 00:36:26;;;;;;;6.57;2.40;;;;;;;;;;5053448;28;20013;-82
2023/10/18 00:38:53;;;;;;;2.95;2.03;;;;;;;;;;5057067;28;20126;-82
2023/10/18 00:41:32;;;;;;;14.05;2.38;;;;;;;;;;5057898;28;20074;-82
2023/10/18 00:43:58;;;;;;;5.95;2.95;;;;;;;;;;5056899;28;20036;-82
2023/10/18 00:46:23;;;;;;;5.68;2.85;;;;;;;;;;5057005;28;20029;-83
2023/10/18 00:48:49;;;;;;;4.75;2.08;;;;;;;;;;5057034;28;20043;-82
2023/10/18 00:51:16;;;;;;;6.05;2.63;;;;;;;;;;5058329;28;20050;-82
2023/10/18 00:53:42;;;;;;;5.13;2.30;;;;;;;;;;5058846;28;20374;-83
2023/10/18 00:56:11;;;;;;;7.57;3.40;;;;;;;;;;5061995;28;20056;-82
2023/10/18 00:58:39;;;;;;;4.32;2.45;;;;;;;;;;5060339;28;20048;-82
2023/10/18 01:01:10;;;;;;;7.57;3.53;;;;;;;;;;5060369;28;20157;-82
2023/10/18 01:03:38;;;;;;;6.73;2.87;;;;;;;;;;5059349;28;20025;-82
2023/10/18 01:06:04;;;;;;;6.55;3.55;;;;;;;;;;5092507;28;20029;-82
2023/10/18 01:08:35;;;;;;;7.00;3.45;;;;;;;;;;5059086;28;20118;-82
2023/10/18 01:11:06;;;;;;;8.18;3.85;;;;;;;;;;5058984;28;20446;-83
2023/10/18 01:13:34;;;;;;;7.32;3.33;;;;;;;;;;5090997;28;20052;-82
2023/10/18 01:16:01;;;;;;;7.32;3.35;;;;;;;;;;5090189;28;20086;-83
2023/10/18 01:18:26;;;;;;;7.53;3.55;;;;;;;;;;5057362;28;20029;-82
2023/10/18 01:20:56;;;;;;;6.30;3.53;;;;;;;;;;5057958;28;20020;-82
2023/10/18 01:23:21;;;;;;;7.35;3.17;;;;;;;;;;5055490;28;20040;-82
2023/10/18 01:25:47;;;;;;;8.02;3.30;;;;;;;;;;5089880;28;20039;-82
2023/10/18 01:28:12;;;;;;;5.95;3.30;;;;;;;;;;5056860;28;20028;-82
2023/10/18 01:30:38;;;;;;;9.20;2.90;;;;;;;;;;5054829;28;20024;-83
2023/10/18 01:33:10;;;;;;;5.60;3.10;;;;;;;;;;5052278;28;20398;-82
2023/10/18 01:35:35;;;;;;;6.47;3.85;;;;;;;;;;5088781;28;20104;-82
2023/10/18 01:38:04;;;;;;;8.23;3.33;;;;;;;;;;5055784;28;20143;-82
2023/10/18 01:40:41;;;;;;;7.93;3.42;;;;;;;;;;5073724;28;20462;-83
2023/10/18 01:43:06;;;;;;;13.85;3.45;;;;;;;;;;5055164;28;20063;-82
2023/10/18 01:45:38;;;;;;;7.05;3.15;;;;;;;;;;5055665;28;20063;-81
2023/10/18 01:48:09;;;;;;;6.35;3.17;;;;;;;;;;5054107;28;20028;-82
2023/10/18 01:50:35;;;;;;;7.60;3.80;;;;;;;;;;5055607;28;20016;-82
2023/10/18 01:53:00;;;;;;;11.07;4.18;;;;;;;;;;5053189;28;20016;-82
2023/10/18 01:55:31;;;;;;;6.97;3.55;;;;;;;;;;5054692;28;20013;-83
2023/10/18 01:57:58;;;;;;;7.72;3.63;;;;;;;;;;5054766;28;20031;-82
2023/10/18 02:00:34;;;;;;;9.32;3.63;;;;;;;;;;5087625;28;20487;-82
2023/10/18 02:03:00;;;;;;;4.85;2.90;;;;;;;;;;5054234;28;20040;-82
2023/10/18 02:05:26;;;;;;;10.57;3.72;;;;;;;;;;5088431;28;20311;-82
2023/10/18 02:07:54;;;;;;;6.25;3.03;;;;;;;;;;5054430;28;20028;-82
2023/10/18 02:10:23;;;;;;;9.75;3.83;;;;;;;;;;5054841;28;20017;-82
2023/10/18 02:12:48;;;;;;;6.25;3.60;;;;;;;;;;5054457;28;20016;-82
2023/10/18 02:15:14;;;;;;;9.52;3.20;;;;;;;;;;5053516;28;20020;-81
2023/10/18 02:17:40;;;;;;;6.88;3.55;;;;;;;;;;5053428;28;20032;-82
2023/10/18 02:20:26;;;;;;;7.57;3.60;;;;;;;;;;5058756;28;20020;-82
2023/10/18 02:22:53;;;;;;;7.30;3.05;;;;;;;;;;5054698;28;20032;-82
2023/10/18 02:28:25;;;;;;;6.75;2.95;;;;;;;;;;5065914;28;20032;-82
2023/10/18 02:30:55;;;;;;;5.72;3.20;;;;;;;;;;5072619;28;20025;-82
2023/10/18 02:33:30;;;;;;;8.27;3.20;;;;;;;;;;5056848;28;20031;-83
2023/10/18 02:35:57;;;;;;;8.35;2.95;;;;;;;;;;5058134;28;20023;-82
2023/10/18 02:38:24;;;;;;;6.60;3.53;;;;;;;;;;5058042;28;20093;-83
2023/10/18 02:40:50;;;;;;;6.45;3.15;;;;;;;;;;5046257;28;20024;-83
2023/10/18 02:43:16;;;;;;;5.90;3.08;;;;;;;;;;5056394;28;20116;-82
2023/10/18 02:45:50;;;;;;;6.88;3.00;;;;;;;;;;5056162;28;20464;-83
2023/10/18 02:48:22;;;;;;;7.82;3.35;;;;;;;;;;5055713;28;20032;-83
2023/10/18 02:50:48;;;;;;;8.85;3.63;;;;;;;;;;5055227;28;20407;-82
2023/10/18 02:53:17;;;;;;;5.18;3.10;;;;;;;;;;5056064;28;20020;-82
2023/10/18 02:55:58;;;;;;;9.88;3.35;;;;;;;;;;5055132;28;20016;-83
2023/10/18 02:58:32;;;;;;;6.97;2.88;;;;;;;;;;5054665;28;20058;-82
2023/10/18 03:01:05;;;;;;;6.05;3.08;;;;;;;;;;5055431;28;20511;-82
2023/10/18 03:03:31;;;;;;;7.28;2.67;;;;;;;;;;5055457;28;20138;-82
2023/10/18 03:05:58;;;;;;;4.35;2.17;;;;;;;;;;5054322;28;20059;-82
2023/10/18 03:08:24;;;;;;;5.13;2.53;;;;;;;;;;5053824;28;20468;-82
2023/10/18 03:10:51;;;;;;;9.98;3.78;;;;;;;;;;5054242;28;20024;-82
2023/10/18 03:13:18;;;;;;;6.57;3.38;;;;;;;;;;5074112;28;20016;-82
2023/10/18 03:18:27;;;;;;;7.43;3.15;;;;;;;;;;5072213;28;20044;-83
2023/10/18 03:20:55;;;;;;;5.60;2.75;;;;;;;;;;5053869;28;20021;-83
2023/10/18 03:23:22;;;;;;;5.18;3.08;;;;;;;;;;5053507;28;20020;-83
2023/10/18 03:26:00;;;;;;;5.80;3.03;;;;;;;;;;5087268;28;20526;-82
2023/10/18 03:28:34;;;;;;;6.47;3.28;;;;;;;;;;5053027;28;20027;-81
2023/10/18 03:31:00;;;;;;;8.88;3.28;;;;;;;;;;5072243;28;20513;-82
2023/10/18 03:33:28;;;;;;;9.50;3.55;;;;;;;;;;5053894;28;20108;-82
2023/10/18 03:36:20;;;;;;;7.00;3.45;;;;;;;;;;5053752;28;20013;-83
2023/10/18 03:38:54;;;;;;;6.28;3.40;;;;;;;;;;5053620;28;20097;-83
2023/10/18 03:41:25;;;;;;;6.07;3.25;;;;;;;;;;5053178;28;20035;-83
2023/10/18 03:43:58;;;;;;;6.10;3.17;;;;;;;;;;5052957;28;20031;-82
2023/10/18 03:46:29;;;;;;;10.02;3.38;;;;;;;;;;5052633;28;20699;-83
2023/10/18 03:48:54;;;;;;;5.70;2.67;;;;;;;;;;5052936;28;20024;-83
2023/10/18 03:51:23;;;;;;;11.77;3.38;;;;;;;;;;5053391;28;20024;-82
2023/10/18 03:53:52;;;;;;;5.40;2.70;;;;;;;;;;5053419;28;20333;-82
2023/10/18 03:56:19;;;;;;;6.57;3.00;;;;;;;;;;5053249;28;20161;-82
2023/10/18 03:58:49;;;;;;;5.35;3.03;;;;;;;;;;5053013;28;20538;-81
2023/10/18 04:01:21;;;;;;;7.38;3.60;;;;;;;;;;5052073;28;20028;-82
2023/10/18 04:03:46;;;;;;;9.63;3.95;;;;;;;;;;5052620;28;20036;-82
2023/10/18 04:06:21;;;;;;;7.90;3.83;;;;;;;;;;5055955;28;20047;-82
2023/10/18 04:08:47;;;;;;;7.30;4.00;;;;;;;;;;5055163;28;20020;-83
2023/10/18 04:11:13;;;;;;;10.23;4.20;;;;;;;;;;5053648;28;20107;-82
2023/10/18 04:13:38;;;;;;;10.95;4.22;;;;;;;;;;5057853;28;20028;-83
2023/10/18 04:16:10;;;;;;;11.50;4.00;;;;;;;;;;5057378;28;20100;-82
2023/10/18 04:18:35;;;;;;;16.63;5.20;;;;;;;;;;5092333;28;20452;-82
2023/10/18 04:21:05;;;;;;;10.85;4.72;;;;;;;;;;5061267;28;20267;-82
2023/10/18 04:23:34;;;;;;;8.13;4.32;;;;;;;;;;5045203;28;20464;-83
2023/10/18 04:28:26;;;;;;;10.65;4.50;;;;;;;;;;5076755;28;20017;-82
2023/10/18 04:31:01;;;;;;;11.45;5.28;;;;;;;;;;5059054;28;20102;-83
2023/10/18 04:33:28;;;;;;;9.80;4.60;;;;;;;;;;5058076;28;20012;-82
2023/10/18 04:35:55;;;;;;;11.90;4.80;;;;;;;;;;5059259;28;20103;-82
2023/10/18 04:38:29;;;;;;;8.68;4.43;;;;;;;;;;5059785;28;20245;-82
2023/10/18 04:41:03;;;;;;;10.30;4.10;;;;;;;;;;5058814;28;20036;-82
2023/10/18 04:43:28;;;;;;;8.38;4.20;;;;;;;;;;5057738;28;20024;-82
2023/10/18 04:45:56;;;;;;;15.38;5.47;;;;;;;;;;5058004;28;20103;-83
2023/10/18 04:48:43;;;;;;;8.75;4.40;;;;;;;;;;5056741;28;20055;-82
2023/10/18 04:51:07;;;;;;;11.80;5.10;;;;;;;;;;5076186;28;20025;-82
2023/10/18 04:53:33;;;;;;;6.57;3.75;;;;;;;;;;5057381;28;20382;-82
2023/10/18 04:55:58;;;;;;;6.72;3.20;;;;;;;;;;5056662;28;20023;-82
2023/10/18 04:58:29;;;;;;;6.88;3.38;;;;;;;;;;5056062;28;20480;-83
2023/10/18 05:00:57;;;;;;;7.65;3.42;;;;;;;;;;5056445;28;20379;-82
2023/10/18 05:03:30;;;;;;;8.73;3.38;;;;;;;;;;5056219;28;20144;-83
2023/10/18 05:05:56;;;;;;;5.93;3.30;;;;;;;;;;5056487;28;20028;-82
2023/10/18 05:08:24;;;;;;;7.03;3.85;;;;;;;;;;5056496;28;20044;-83
2023/10/18 05:10:52;;;;;;;8.93;4.00;;;;;;;;;;5055968;28;20418;-82
2023/10/18 05:13:33;;;;;;;8.63;4.28;;;;;;;;;;5055988;28;20019;-82
2023/10/18 05:16:01;;;;;;;9.93;3.75;;;;;;;;;;5055660;28;20020;-83
2023/10/18 05:18:30;;;;;;;6.47;3.58;;;;;;;;;;5055594;28;20024;-82
2023/10/18 05:20:58;;;;;;;6.40;3.45;;;;;;;;;;5056415;28;20025;-82
2023/10/18 05:23:27;;;;;;;6.45;3.50;;;;;;;;;;5054320;28;20387;-82
2023/10/18 05:26:35;;;;;;;8.00;3.45;;;;;;;;;;5056145;28;20039;-82
2023/10/18 05:28:47;;;;;;;8.15;2.90;;;;;;;;;;5052561;28;20064;-82
2023/10/18 05:33:57;;;;;;;9.93;3.13;;;;;;;;;;5061072;28;20029;-82
2023/10/18 05:38:48;;;;;;;9.20;3.50;;;;;;;;;;5074111;28;20056;-82
2023/10/18 05:43:53;;;;;;;6.38;3.08;;;;;;;;;;5074394;28;20021;-82
2023/10/18 05:46:20;;;;;;;10.65;2.92;;;;;;;;;;5055334;28;20016;-82
2023/10/18 05:48:48;;;;;;;6.10;3.33;;;;;;;;;;5054930;28;20036;-83
2023/10/18 05:53:59;;;;;;;6.05;3.33;;;;;;;;;;5072635;28;20435;-83
2023/10/18 05:56:30;;;;;;;8.57;3.38;;;;;;;;;;5076387;28;20062;-83
2023/10/18 06:01:44;;;;;;;7.25;3.85;;;;;;;;;;5075115;28;20112;-90
2023/10/18 06:04:12;;;;;;;5.40;2.47;;;;;;;;;;5057175;28;20549;-89
2023/10/18 06:06:37;;;;;;;6.82;3.38;;;;;;;;;;5057569;28;20027;-89
2023/10/18 06:09:10;;;;;;;6.80;3.38;;;;;;;;;;5058034;28;20016;-89
2023/10/18 06:11:36;;;;;;;8.40;3.13;;;;;;;;;;5059412;28;20041;-90
2023/10/18 06:14:08;;;;;;;8.18;3.30;;;;;;;;;;5061637;28;20023;-91
2023/10/18 06:16:34;;;;;;;5.80;2.63;;;;;;;;;;5060066;28;20091;-90
2023/10/18 06:19:13;;;;;;;5.82;3.17;;;;;;;;;;5058574;28;20479;-90
2023/10/18 06:21:43;;;;;;;9.40;3.00;;;;;;;;;;5058626;28;20061;-90
2023/10/18 06:24:10;;;;;;;6.15;2.60;;;;;;;;;;5057312;28;20031;-90
2023/10/18 06:26:36;;;;;;;5.07;2.45;;;;;;;;;;5056774;28;20028;-90
2023/10/18 06:29:02;;;;;;;5.97;2.47;;;;;;;;;;5057124;28;20036;-89
2023/10/18 06:31:31;;;;;;;5.30;3.03;;;;;;;;;;5056547;28;20051;-90
2023/10/18 06:33:59;;;;;;;5.78;2.92;;;;;;;;;;5056142;28;20051;-90
2023/10/18 06:36:24;;;;;;;10.45;2.80;;;;;;;;;;5041341;28;20495;-90
2023/10/18 06:38:50;;;;;;;5.40;2.83;;;;;;;;;;5055948;28;20017;-90
2023/10/18 06:41:19;;;;;;;7.28;3.00;;;;;;;;;;5054580;28;20407;-90
2023/10/18 06:43:45;;;;;;;12.40;3.55;;;;;;;;;;5055410;28;20032;-90
2023/10/18 06:46:26;;;;;;;6.95;3.75;;;;;;;;;;5054670;28;20028;-90
2023/10/18 06:48:58;;;;;;;5.75;2.72;;;;;;;;;;5054085;28;20144;-90
2023/10/18 06:54:54;;;;;;;8.75;3.53;;;;;;;;;;5071939;28;20046;-90
2023/10/18 06:56:54;;;;;;;7.15;3.13;;;;;;;;;;5055587;28;20043;-90
2023/10/18 06:59:27;;;;;;;9.32;3.90;;;;;;;;;;5055628;28;20119;-90
2023/10/18 07:01:58;;;;;;;7.18;3.42;;;;;;;;;;5055496;28;20032;-90
2023/10/18 07:07:19;;;;;;;5.68;2.95;;;;;;;;;;5033673;28;20051;-90
2023/10/18 07:09:45;;;;;;;6.68;3.47;;;;;;;;;;5072794;28;20456;-91
2023/10/18 07:12:11;;;;;;;6.53;2.55;;;;;;;;;;5073325;28;20031;-90
2023/10/18 07:14:40;;;;;;;9.55;3.30;;;;;;;;;;5055415;28;20432;-91
2023/10/18 07:17:09;;;;;;;8.93;2.97;;;;;;;;;;5054932;28;20032;-91
2023/10/18 07:19:47;;;;;;;9.30;3.05;;;;;;;;;;5073039;28;20437;-91
2023/10/18 07:22:17;;;;;;;5.53;2.58;;;;;;;;;;5064530;28;20021;-90
2023/10/18 07:24:59;;;;;;;6.47;3.38;;;;;;;;;;5054361;28;20025;-91
2023/10/18 07:27:29;;;;;;;6.95;3.45;;;;;;;;;;5053940;28;20104;-90
2023/10/18 07:29:56;;;;;;;7.18;3.08;;;;;;;;;;5054537;28;20410;-89
2023/10/18 07:32:24;;;;;;;5.47;2.67;;;;;;;;;;5054616;28;20017;-90
2023/10/18 07:34:49;;;;;;;8.02;3.88;;;;;;;;;;5054668;28;20029;-91
2023/10/18 07:37:17;;;;;;;15.07;4.10;;;;;;;;;;5054278;28;20051;-91
2023/10/18 07:40:04;;;;;;;7.93;3.05;;;;;;;;;;5053285;28;20021;-90
2023/10/18 07:42:53;;;;;;;10.80;4.00;;;;;;;;;;5072504;28;20016;-91
2023/10/18 07:45:18;;;;;;;15.32;3.80;;;;;;;;;;5069471;28;20042;-91
2023/10/18 07:47:43;;;;;;;10.18;3.60;;;;;;;;;;5055291;28;20036;-91
2023/10/18 07:52:54;;;;;;;12.05;4.05;;;;;;;;;;5071827;28;20363;-90
2023/10/18 07:55:21;;;;;;;8.98;3.70;;;;;;;;;;5052658;28;20063;-91
2023/10/18 07:57:47;;;;;;;13.00;4.28;;;;;;;;;;5052672;28;20024;-91
2023/10/18 08:00:21;;;;;;;13.63;4.50;;;;;;;;;;5081827;28;20031;-91
2023/10/18 08:02:47;;;;;;;8.68;4.07;;;;;;;;;;5056188;28;20569;-91
2023/10/18 08:05:17;;;;;;;10.27;4.03;;;;;;;;;;5057666;28;20021;-91
2023/10/18 08:07:49;;;;;;;11.02;4.07;;;;;;;;;;5090455;28;20548;-90
2023/10/18 08:10:19;;;;;;;7.22;3.80;;;;;;;;;;5056177;28;20017;-92
2023/10/18 08:12:48;;;;;;;8.25;3.80;;;;;;;;;;5055351;28;20384;-91
2023/10/18 08:15:14;;;;;;;6.78;3.40;;;;;;;;;;5054979;28;20029;-91
2023/10/18 08:22:47;;;;;;;11.60;3.42;;;;;;;;;;5073345;28;20026;-91
2023/10/18 08:25:22;;;;;;;7.40;2.88;;;;;;;;;;5055377;28;20017;-91
2023/10/18 08:27:51;;;;;;;6.20;3.15;;;;;;;;;;5053940;28;20065;-91
2023/10/18 08:33:00;;;;;;;9.05;3.50;;;;;;;;;;5071649;28;20535;-91
2023/10/18 08:35:25;;;;;;;11.85;3.28;;;;;;;;;;5054673;28;20032;-91
2023/10/18 08:37:51;;;;;;;6.22;3.13;;;;;;;;;;5054519;28;20119;-90
2023/10/18 08:40:27;;;;;;;7.03;3.70;;;;;;;;;;5053817;28;20028;-90
2023/10/18 08:42:56;;;;;;;5.47;3.30;;;;;;;;;;5054308;28;20029;-90
2023/10/18 08:45:23;;;;;;;9.13;3.38;;;;;;;;;;5053211;28;20040;-91
2023/10/18 08:47:53;;;;;;;5.93;3.20;;;;;;;;;;5053751;28;20035;-90
2023/10/18 08:50:19;;;;;;;10.52;4.10;;;;;;;;;;5053586;28;20498;-91
2023/10/18 08:52:47;;;;;;;9.77;3.40;;;;;;;;;;5053731;28;20456;-91
2023/10/18 08:55:31;;;;;;;8.30;3.95;;;;;;;;;;5053458;28;20435;-91
2023/10/18 08:57:57;;;;;;;7.03;3.95;;;;;;;;;;5054627;28;20434;-91
2023/10/18 09:02:52;;;;;;;7.28;3.33;;;;;;;;;;5073979;28;20024;-90
2023/10/18 09:05:22;;;;;;;10.10;3.72;;;;;;;;;;5057611;28;20024;-90
2023/10/18 09:07:54;;;;;;;11.27;3.58;;;;;;;;;;5057212;28;20020;-91
2023/10/18 09:13:32;;;;;;;9.60;3.97;;;;;;;;;;5074443;28;19912;-90
2023/10/18 09:18:19;;;;;;;9.40;3.28;;;;;;;;;;5074103;28;20032;-90
2023/10/18 09:20:46;;;;;;;8.93;3.83;;;;;;;;;;5075202;28;20025;-91
2023/10/18 09:23:25;;;;;;;8.43;3.65;;;;;;;;;;5057170;28;20060;-91
2023/10/18 09:28:44;;;;;;;7.85;3.40;;;;;;;;;;5075131;28;20039;-91
2023/10/18 09:31:18;;;;;;;8.55;3.35;;;;;;;;;;5055527;28;20384;-90
2023/10/18 09:33:49;;;;;;;10.70;3.70;;;;;;;;;;5086136;28;20146;-91
2023/10/18 09:36:25;;;;;;;8.90;3.50;;;;;;;;;;5061399;28;20110;-91
2023/10/18 09:38:54;;;;;;;5.90;3.20;;;;;;;;;;5056046;28;20028;-91
2023/10/18 09:41:20;;;;;;;5.80;3.13;;;;;;;;;;5046145;28;20484;-90
2023/10/18 09:43:47;;;;;;;10.88;3.40;;;;;;;;;;5056303;28;20031;-91
2023/10/18 09:46:13;;;;;;;6.38;3.38;;;;;;;;;;5056441;28;20357;-90
2023/10/18 09:48:44;;;;;;;8.82;3.28;;;;;;;;;;5060305;28;20020;-90
2023/10/18 09:51:32;;;;;;;5.90;2.58;;;;;;;;;;5061308;28;20045;-91
2023/10/18 09:54:08;;;;;;;10.13;3.75;;;;;;;;;;5059990;28;20040;-91
2023/10/18 09:56:34;;;;;;;7.32;3.20;;;;;;;;;;5077194;28;20173;-91
2023/10/18 09:59:16;;;;;;;5.13;2.95;;;;;;;;;;5060793;28;20035;-91
2023/10/18 10:04:09;;;;;;;5.82;2.78;;;;;;;;;;5078147;28;20040;-91
2023/10/18 10:06:45;;;;;;;6.53;2.60;;;;;;;;;;5075687;28;20248;-91
2023/10/18 10:11:37;;;;;;;7.05;3.08;;;;;;;;;;5075254;28;20017;-91
2023/10/18 10:14:03;;;;;;;5.88;2.88;;;;;;;;;;5056745;28;20116;-91
2023/10/18 10:16:31;;;;;;;7.50;2.80;;;;;;;;;;5056415;28;20158;-92
2023/10/18 10:18:57;;;;;;;5.50;2.40;;;;;;;;;;5059043;28;20033;-92
2023/10/18 10:21:27;;;;;;;6.32;2.60;;;;;;;;;;5057913;28;20020;-90
2023/10/18 10:23:57;;;;;;;4.03;2.13;;;;;;;;;;5056633;28;20020;-91
2023/10/18 10:26:35;;;;;;;4.88;2.28;;;;;;;;;;5059662;28;20487;-91
2023/10/18 10:31:50;;;;;;;5.63;2.13;;;;;;;;;;5074093;28;20032;-91
2023/10/18 10:34:24;;;;;;;6.18;2.30;;;;;;;;;;5056236;28;20093;-90
2023/10/18 10:37:09;;;;;;;5.20;1.83;;;;;;;;;;5056001;28;20489;-91
2023/10/18 10:39:49;;;;;;;4.47;2.10;;;;;;;;;;5055820;28;20047;-91
2023/10/18 10:42:41;;;;;;;9.18;2.35;;;;;;;;;;5043122;28;20021;-90
2023/10/18 10:45:10;;;;;;;6.65;2.58;;;;;;;;;;5056499;28;20039;-91
2023/10/18 10:47:42;;;;;;;8.77;3.22;;;;;;;;;;5055329;28;20404;-91
2023/10/18 10:50:08;;;;;;;8.85;2.80;;;;;;;;;;5073550;28;20059;-91
2023/10/18 10:52:35;;;;;;;5.70;2.70;;;;;;;;;;5055281;28;20029;-91
2023/10/18 10:55:02;;;;;;;5.97;2.10;;;;;;;;;;5073651;28;20043;-91
2023/10/18 10:57:29;;;;;;;4.15;2.15;;;;;;;;;;5054623;28;20024;-91
2023/10/18 10:59:56;;;;;;;7.43;2.35;;;;;;;;;;5055024;28;20495;-90
2023/10/18 11:02:34;;;;;;;8.55;2.30;;;;;;;;;;5054229;28;20089;-91
2023/10/18 11:05:02;;;;;;;5.22;2.15;;;;;;;;;;5073054;28;20536;-91
2023/10/18 11:07:28;;;;;;;10.25;2.60;;;;;;;;;;5054256;28;20044;-91
2023/10/18 11:10:04;;;;;;;4.15;1.85;;;;;;;;;;5054224;28;20035;-91
2023/10/18 11:12:33;;;;;;;9.13;1.95;;;;;;;;;;5054929;28;20107;-91
2023/10/18 11:14:59;;;;;;;3.63;1.55;;;;;;;;;;5054930;28;20365;-90
2023/10/18 11:17:25;;;;;;;9.05;2.22;;;;;;;;;;5054770;28;20055;-92
2023/10/18 11:19:53;;;;;;;4.05;2.08;;;;;;;;;;5060108;28;20565;-91
2023/10/18 11:22:29;;;;;;;6.35;2.20;;;;;;;;;;5060714;28;20028;-91
2023/10/18 11:24:56;;;;;;;5.38;2.17;;;;;;;;;;5058512;28;20020;-91
2023/10/18 11:27:22;;;;;;;8.93;2.50;;;;;;;;;;5068972;28;20025;-91
2023/10/18 11:32:33;;;;;;;3.75;1.80;;;;;;;;;;5078038;28;20177;-87
2023/10/18 11:35:09;;;;;;;3.88;2.17;;;;;;;;;;5056051;28;20016;-86
2023/10/18 11:37:38;;;;;;;10.90;2.58;;;;;;;;;;5055000;28;20028;-87
2023/10/18 11:40:14;;;;;;;5.30;2.05;;;;;;;;;;5076924;28;20025;-87
2023/10/18 11:42:55;;;;;;;4.05;2.13;;;;;;;;;;5054322;28;20417;-87
2023/10/18 11:45:21;;;;;;;5.65;2.30;;;;;;;;;;5073141;28;20036;-86
2023/10/18 11:47:53;;;;;;;7.05;2.22;;;;;;;;;;5072528;28;20086;-87
2023/10/18 11:50:23;;;;;;;6.13;2.28;;;;;;;;;;5054347;28;20037;-86
2023/10/18 11:52:49;;;;;;;3.35;2.15;;;;;;;;;;5054371;28;20055;-86
2023/10/18 11:55:15;;;;;;;4.82;2.40;;;;;;;;;;5054376;28;20020;-87
2023/10/18 11:57:46;;;;;;;6.10;1.95;;;;;;;;;;5054292;28;20477;-86
2023/10/18 12:02:49;;;;;;;9.70;3.67;;;;;;;;;;5071898;28;20051;-86
2023/10/18 12:05:15;;;;;;;8.57;3.53;;;;;;;;;;5054104;28;20024;-86
2023/10/18 12:07:48;;;;;;;11.07;4.20;;;;;;;;;;5053980;28;20059;-87
2023/10/18 12:10:57;;;;;;;10.43;3.95;;;;;;;;;;5054553;28;20060;-87
2023/10/18 12:13:07;;;;;;;11.90;3.97;;;;;;;;;;5062704;28;20178;-87
2023/10/18 12:15:36;;;;;;;10.63;3.78;;;;;;;;;;5053678;28;20017;-87
2023/10/18 12:18:06;;;;;;;13.10;3.20;;;;;;;;;;5053775;28;20059;-87
2023/10/18 12:20:43;;;;;;;5.07;2.22;;;;;;;;;;5055658;28;20027;-86
2023/10/18 12:23:18;;;;;;;6.80;2.50;;;;;;;;;;5054408;28;20013;-86
2023/10/18 12:25:44;;;;;;;6.72;2.38;;;;;;;;;;5073543;28;20024;-87
2023/10/18 12:28:14;;;;;;;5.38;2.70;;;;;;;;;;5057360;28;20032;-87
2023/10/18 12:30:51;;;;;;;9.60;3.10;;;;;;;;;;5056956;28;20020;-87
2023/10/18 12:33:34;;;;;;;7.22;2.65;;;;;;;;;;5058214;28;20129;-86
2023/10/18 12:36:00;;;;;;;4.65;1.98;;;;;;;;;;5077059;28;20024;-86
2023/10/18 12:38:32;;;;;;;5.47;2.35;;;;;;;;;;5060694;28;20024;-87
2023/10/18 12:41:03;;;;;;;10.02;2.50;;;;;;;;;;5060597;28;20021;-86
2023/10/18 12:43:32;;;;;;;6.22;2.70;;;;;;;;;;5057538;28;20058;-86
2023/10/18 12:45:57;;;;;;;5.68;2.60;;;;;;;;;;5059588;28;20028;-87
2023/10/18 12:48:23;;;;;;;9.40;2.80;;;;;;;;;;5057468;28;20017;-87
2023/10/18 12:50:50;;;;;;;8.10;3.10;;;;;;;;;;5075844;28;20044;-87
2023/10/18 12:55:57;;;;;;;7.38;2.63;;;;;;;;;;5062207;28;20040;-87
2023/10/18 12:58:29;;;;;;;6.47;2.42;;;;;;;;;;5057304;28;20036;-87
2023/10/18 13:01:04;;;;;;;5.72;2.60;;;;;;;;;;5057270;28;20020;-87
2023/10/18 13:03:44;;;;;;;4.70;2.33;;;;;;;;;;5057724;28;20016;-87
2023/10/18 13:06:15;;;;;;;7.30;2.35;;;;;;;;;;5057394;28;20012;-87
2023/10/18 13:08:54;;;;;;;5.97;2.80;;;;;;;;;;5057120;28;20028;-87
2023/10/18 13:11:44;;;;;;;5.03;2.30;;;;;;;;;;5074886;28;20253;-87
2023/10/18 13:14:05;;;;;;;9.02;2.78;;;;;;;;;;5074276;28;20099;-86
2023/10/18 13:16:33;;;;;;;8.75;2.65;;;;;;;;;;5055748;28;20021;-87
2023/10/18 13:18:59;;;;;;;7.90;2.55;;;;;;;;;;5057075;28;20066;-87
2023/10/18 13:21:27;;;;;;;13.25;2.30;;;;;;;;;;5056274;28;20024;-87
2023/10/18 13:24:16;;;;;;;11.02;2.13;;;;;;;;;;5055997;28;20462;-87
2023/10/18 13:26:52;;;;;;;6.65;2.35;;;;;;;;;;5053939;28;20371;-86
2023/10/18 13:31:49;;;;;;;7.55;2.15;;;;;;;;;;5074580;28;20008;-87
2023/10/18 13:34:21;;;;;;;6.32;2.67;;;;;;;;;;5088303;28;20468;-87
2023/10/18 13:36:50;;;;;;;6.40;2.75;;;;;;;;;;5061611;28;20050;-86
2023/10/18 13:39:16;;;;;;;7.13;2.53;;;;;;;;;;5059368;28;20036;-87
2023/10/18 13:41:52;;;;;;;5.35;2.42;;;;;;;;;;5060146;28;20333;-87
2023/10/18 13:44:22;;;;;;;6.13;1.95;;;;;;;;;;5059875;28;20048;-86
2023/10/18 13:46:50;;;;;;;6.95;2.50;;;;;;;;;;5059342;28;20029;-86
2023/10/18 13:49:17;;;;;;;8.60;2.60;;;;;;;;;;5078816;28;20027;-86
2023/10/18 13:51:45;;;;;;;10.00;2.53;;;;;;;;;;5056785;28;20025;-86
2023/10/18 13:54:12;;;;;;;5.72;2.53;;;;;;;;;;5060845;28;20647;-86
2023/10/18 13:56:38;;;;;;;3.53;1.92;;;;;;;;;;5056359;28;20084;-87
2023/10/18 13:59:04;;;;;;;11.38;2.33;;;;;;;;;;5056560;28;20111;-87
2023/10/18 14:01:30;;;;;;;4.70;2.13;;;;;;;;;;5056578;28;20031;-87
2023/10/18 14:03:59;;;;;;;5.05;2.33;;;;;;;;;;5056549;28;20020;-87
2023/10/18 14:06:25;;;;;;;4.05;1.92;;;;;;;;;;5055970;28;20387;-85
2023/10/18 14:08:50;;;;;;;5.13;2.45;;;;;;;;;;5056275;28;20111;-86
2023/10/18 14:11:17;;;;;;;7.20;2.63;;;;;;;;;;5056226;28;20017;-86
2023/10/18 14:13:44;;;;;;;5.63;2.42;;;;;;;;;;5057000;28;20046;-87
2023/10/18 14:16:12;;;;;;;4.18;1.75;;;;;;;;;;5055441;28;20327;-87
2023/10/18 14:18:40;;;;;;;7.30;2.20;;;;;;;;;;5089417;28;20040;-86
2023/10/18 14:21:14;;;;;;;7.68;2.60;;;;;;;;;;5055340;28;20024;-86
2023/10/18 14:23:45;;;;;;;6.88;2.50;;;;;;;;;;5073686;28;20056;-86
2023/10/18 14:26:17;;;;;;;7.50;2.15;;;;;;;;;;5055135;28;20037;-87
2023/10/18 14:28:44;;;;;;;8.23;2.65;;;;;;;;;;5055941;28;20028;-86
2023/10/18 14:31:13;;;;;;;4.63;2.15;;;;;;;;;;5054225;28;20017;-86
2023/10/18 14:33:49;;;;;;;5.70;2.15;;;;;;;;;;5063716;28;20044;-87
2023/10/18 14:36:16;;;;;;;6.63;2.25;;;;;;;;;;5055690;28;20274;-86
2023/10/18 14:38:41;;;;;;;6.78;1.80;;;;;;;;;;5055868;28;20401;-87
2023/10/18 14:41:14;;;;;;;8.15;2.13;;;;;;;;;;5061337;28;20020;-86
2023/10/18 14:43:43;;;;;;;8.82;2.20;;;;;;;;;;5064030;28;20021;-91
2023/10/18 14:46:12;;;;;;;5.43;2.17;;;;;;;;;;5062089;28;20028;-91
2023/10/18 14:48:40;;;;;;;5.55;2.25;;;;;;;;;;5059821;28;20020;-87
2023/10/18 14:51:09;;;;;;;10.82;2.63;;;;;;;;;;5057701;28;20052;-88
2023/10/18 14:53:35;;;;;;;4.70;2.08;;;;;;;;;;5075810;28;20474;-88
2023/10/18 14:56:04;;;;;;;5.03;2.47;;;;;;;;;;5091529;28;20023;-88
2023/10/18 14:58:29;;;;;;;9.18;2.45;;;;;;;;;;5055702;28;20027;-87
2023/10/18 15:00:55;;;;;;;6.47;2.15;;;;;;;;;;5090277;28;20032;-86
2023/10/18 15:03:22;;;;;;;4.25;2.20;;;;;;;;;;5055657;28;20123;-86
2023/10/18 15:05:48;;;;;;;4.43;2.33;;;;;;;;;;5055917;28;20025;-87
2023/10/18 15:08:13;;;;;;;4.80;2.30;;;;;;;;;;5055495;28;20027;-88
2023/10/18 15:10:39;;;;;;;8.57;2.72;;;;;;;;;;5073467;28;20013;-87
2023/10/18 15:13:08;;;;;;;6.22;2.65;;;;;;;;;;5054984;28;20036;-87
2023/10/18 15:15:33;;;;;;;10.95;2.50;;;;;;;;;;5072833;28;20028;-88
2023/10/18 15:17:59;;;;;;;4.95;2.05;;;;;;;;;;5054907;28;20214;-88
2023/10/18 15:20:26;;;;;;;9.55;2.45;;;;;;;;;;5055077;28;20032;-87
2023/10/18 15:22:52;;;;;;;6.70;2.40;;;;;;;;;;5054827;28;20028;-88
2023/10/18 15:25:18;;;;;;;8.73;2.50;;;;;;;;;;5072322;28;20137;-87
2023/10/18 15:27:43;;;;;;;5.63;2.50;;;;;;;;;;5048045;28;20105;-87
2023/10/18 15:30:09;;;;;;;6.82;2.30;;;;;;;;;;5054368;28;20016;-88
2023/10/18 15:32:34;;;;;;;5.72;2.60;;;;;;;;;;5054743;28;20025;-87
2023/10/18 15:35:00;;;;;;;6.13;2.45;;;;;;;;;;5054382;28;20028;-88
2023/10/18 15:37:26;;;;;;;8.00;2.55;;;;;;;;;;5054034;28;20040;-88
2023/10/18 15:39:51;;;;;;;6.88;2.63;;;;;;;;;;5057449;28;20537;-87
2023/10/18 15:45:03;;;;;;;11.07;2.78;;;;;;;;;;5072936;28;20028;-88
2023/10/18 15:47:29;;;;;;;6.47;2.70;;;;;;;;;;5057420;28;20108;-88
2023/10/18 15:49:54;;;;;;;6.82;2.38;;;;;;;;;;5062293;28;20503;-88
2023/10/18 15:52:20;;;;;;;7.63;2.75;;;;;;;;;;5075847;28;20494;-88
2023/10/18 15:54:46;;;;;;;6.63;2.58;;;;;;;;;;5054864;28;20040;-87
2023/10/18 15:57:14;;;;;;;8.05;2.72;;;;;;;;;;5040776;28;20017;-86
2023/10/18 15:59:42;;;;;;;7.82;2.42;;;;;;;;;;5054764;28;20065;-88
2023/10/18 16:02:14;;;;;;;10.43;2.83;;;;;;;;;;5054535;28;20028;-87
2023/10/18 16:04:40;;;;;;;12.77;2.95;;;;;;;;;;5055076;28;20031;-88
2023/10/18 16:07:06;;;;;;;5.82;2.42;;;;;;;;;;5058032;28;20029;-87